LFOP/URO METAR and TAF weather

Enter ICAO airport designator
Station Type Date Time Source
LFOP METAR 2022/01/28 00:00 UTC NOAA

LFOP 280000Z AUTO 31003KT 2000 BR NSC 07/07 Q1033


Station Type Date Time Source
LFOP Decoded METAR 2022/01/28 00:00 UTC NOAA

Rouen, France (LFOP) 49-23N 001-11E 157M
Jan 27, 2022 - 07:00 PM EST / 2022.01.28 0000 UTC
Wind: from the NW (310 degrees) at 3 MPH (3 KT):0
Visibility: 1 mile(s):0
Weather: mist
Temperature: 44 F (7 C)
Dew Point: 44 F (7 C)
Relative Humidity: 100%
Pressure (altimeter): 30.50 in. Hg (1033 hPa)
ob: LFOP 280000Z AUTO 31003KT 2000 BR NSC 07/07 Q1033
cycle: 0

Station Type Date Time Source
LFOP TAF 2022/01/27 21:27 UTC NOAA

TAF TAF LFOP 272122Z 2721/2818 CNL

Example: see airport list